sensor_id;sensor_type;location;lat;lon;timestamp;pressure;altitude;pressure_sealevel;temperature;humidity
69058;BME280;56128;37.534;-122.308;2023-07-31T00:01:47;101327.16;;;24.65;62.68
69058;BME280;56128;37.534;-122.308;2023-07-31T00:04:13;101322.44;;;24.59;63.16
69058;BME280;56128;37.534;-122.308;2023-07-31T00:06:39;101321.97;;;24.55;63.14
69058;BME280;56128;37.534;-122.308;2023-07-31T00:09:04;101325.94;;;24.53;63.44
69058;BME280;56128;37.534;-122.308;2023-07-31T00:11:30;101324.56;;;24.42;63.30
69058;BME280;56128;37.534;-122.308;2023-07-31T00:13:56;101308.94;;;24.36;63.27
69058;BME280;56128;37.534;-122.308;2023-07-31T00:16:22;101307.19;;;24.28;63.82
69058;BME280;56128;37.534;-122.308;2023-07-31T00:18:48;101310.53;;;24.23;63.92
69058;BME280;56128;37.534;-122.308;2023-07-31T00:21:13;101313.44;;;24.22;63.93
69058;BME280;56128;37.534;-122.308;2023-07-31T00:23:39;101312.53;;;24.14;63.92
69058;BME280;56128;37.534;-122.308;2023-07-31T00:26:05;101307.66;;;24.10;64.54
69058;BME280;56128;37.534;-122.308;2023-07-31T00:28:31;101311.22;;;24.10;64.52
69058;BME280;56128;37.534;-122.308;2023-07-31T00:30:57;101310.69;;;24.00;63.12
69058;BME280;56128;37.534;-122.308;2023-07-31T00:33:22;101311.47;;;23.94;63.76
69058;BME280;56128;37.534;-122.308;2023-07-31T00:35:48;101308.16;;;23.83;63.35
69058;BME280;56128;37.534;-122.308;2023-07-31T00:38:14;101307.78;;;23.72;63.95
69058;BME280;56128;37.534;-122.308;2023-07-31T00:40:40;101300.94;;;23.61;64.50
69058;BME280;56128;37.534;-122.308;2023-07-31T00:43:06;101299.81;;;23.40;64.18
69058;BME280;56128;37.534;-122.308;2023-07-31T00:45:31;101301.44;;;23.34;64.81
69058;BME280;56128;37.534;-122.308;2023-07-31T00:47:58;101298.22;;;23.16;65.23
69058;BME280;56128;37.534;-122.308;2023-07-31T00:50:24;101303.44;;;23.02;65.59
69058;BME280;56128;37.534;-122.308;2023-07-31T00:52:50;101304.97;;;22.90;66.74
69058;BME280;56128;37.534;-122.308;2023-07-31T00:55:16;101297.78;;;22.74;67.44
69058;BME280;56128;37.534;-122.308;2023-07-31T00:57:42;101295.66;;;22.61;67.50
69058;BME280;56128;37.534;-122.308;2023-07-31T01:00:09;101295.53;;;22.54;68.02
69058;BME280;56128;37.534;-122.308;2023-07-31T01:02:35;101293.31;;;22.35;68.59
69058;BME280;56128;37.534;-122.308;2023-07-31T01:05:01;101302.94;;;22.23;70.09
69058;BME280;56128;37.534;-122.308;2023-07-31T01:10:03;101303.75;;;22.00;71.44
69058;BME280;56128;37.534;-122.308;2023-07-31T01:12:30;101295.63;;;21.92;71.12
69058;BME280;56128;37.534;-122.308;2023-07-31T01:17:28;101309.16;;;21.77;71.65
69058;BME280;56128;37.534;-122.308;2023-07-31T01:19:55;101304.59;;;21.69;71.30
69058;BME280;56128;37.534;-122.308;2023-07-31T01:27:17;101312.38;;;21.32;75.11
69058;BME280;56128;37.534;-122.308;2023-07-31T01:29:49;101325.66;;;21.19;77.55
69058;BME280;56128;37.534;-122.308;2023-07-31T01:32:17;101335.72;;;21.10;80.78
69058;BME280;56128;37.534;-122.308;2023-07-31T01:34:43;101338.59;;;21.00;81.96
69058;BME280;56128;37.534;-122.308;2023-07-31T01:37:09;101343.72;;;20.79;83.02
69058;BME280;56128;37.534;-122.308;2023-07-31T01:39:35;101344.88;;;20.51;85.78
69058;BME280;56128;37.534;-122.308;2023-07-31T01:42:01;101341.13;;;20.36;87.29
69058;BME280;56128;37.534;-122.308;2023-07-31T01:44:27;101351.63;;;20.14;89.11
69058;BME280;56128;37.534;-122.308;2023-07-31T01:46:53;101357.50;;;20.01;90.36
69058;BME280;56128;37.534;-122.308;2023-07-31T01:49:19;101351.19;;;19.84;92.40
69058;BME280;56128;37.534;-122.308;2023-07-31T01:51:45;101360.44;;;19.73;94.19
69058;BME280;56128;37.534;-122.308;2023-07-31T01:54:10;101352.69;;;19.52;95.12
69058;BME280;56128;37.534;-122.308;2023-07-31T01:56:36;101356.16;;;19.36;96.86
69058;BME280;56128;37.534;-122.308;2023-07-31T01:59:02;101356.97;;;19.28;97.90
69058;BME280;56128;37.534;-122.308;2023-07-31T02:01:28;101365.16;;;19.10;99.81
69058;BME280;56128;37.534;-122.308;2023-07-31T02:03:54;101368.13;;;18.99;100.00
69058;BME280;56128;37.534;-122.308;2023-07-31T02:06:19;101370.19;;;18.87;100.00
69058;BME280;56128;37.534;-122.308;2023-07-31T02:08:45;101371.47;;;18.75;100.00
69058;BME280;56128;37.534;-122.308;2023-07-31T02:11:11;101370.69;;;18.64;100.00
69058;BME280;56128;37.534;-122.308;2023-07-31T02:13:37;101365.38;;;18.55;100.00
69058;BME280;56128;37.534;-122.308;2023-07-31T02:16:03;101371.41;;;18.48;100.00
69058;BME280;56128;37.534;-122.308;2023-07-31T02:18:29;101374.34;;;18.37;100.00
69058;BME280;56128;37.534;-122.308;2023-07-31T02:20:55;101367.97;;;18.28;100.00
69058;BME280;56128;37.534;-122.308;2023-07-31T02:23:21;101371.19;;;18.14;100.00
69058;BME280;56128;37.534;-122.308;2023-07-31T02:25:46;101372.56;;;18.00;100.00
69058;BME280;56128;37.534;-122.308;2023-07-31T02:28:12;101372.88;;;17.87;100.00
69058;BME280;56128;37.534;-122.308;2023-07-31T02:30:38;101373.78;;;17.78;100.00
69058;BME280;56128;37.534;-122.308;2023-07-31T02:33:04;101369.03;;;17.62;100.00
69058;BME280;56128;37.534;-122.308;2023-07-31T02:35:30;101373.03;;;17.48;100.00
69058;BME280;56128;37.534;-122.308;2023-07-31T02:37:56;101372.38;;;17.26;100.00
69058;BME280;56128;37.534;-122.308;2023-07-31T02:40:22;101381.53;;;17.15;100.00
69058;BME280;56128;37.534;-122.308;2023-07-31T02:42:48;101378.44;;;17.00;100.00
69058;BME280;56128;37.534;-122.308;2023-07-31T02:45:14;101384.41;;;16.94;100.00
69058;BME280;56128;37.534;-122.308;2023-07-31T02:47:40;101383.97;;;16.79;100.00
69058;BME280;56128;37.534;-122.308;2023-07-31T02:50:06;101382.97;;;16.70;100.00
69058;BME280;56128;37.534;-122.308;2023-07-31T02:52:32;101384.34;;;16.55;100.00
69058;BME280;56128;37.534;-122.308;2023-07-31T02:54:57;101387.34;;;16.42;100.00
69058;BME280;56128;37.534;-122.308;2023-07-31T02:57:23;101390.03;;;16.32;100.00
69058;BME280;56128;37.534;-122.308;2023-07-31T02:59:49;101385.31;;;16.25;100.00
69058;BME280;56128;37.534;-122.308;2023-07-31T03:02:15;101379.31;;;16.11;100.00
69058;BME280;56128;37.534;-122.308;2023-07-31T03:04:41;101374.03;;;16.00;100.00
69058;BME280;56128;37.534;-122.308;2023-07-31T03:07:06;101382.13;;;15.90;100.00
69058;BME280;56128;37.534;-122.308;2023-07-31T03:09:32;101378.75;;;15.77;100.00
69058;BME280;56128;37.534;-122.308;2023-07-31T03:11:58;101382.53;;;15.64;100.00
69058;BME280;56128;37.534;-122.308;2023-07-31T03:14:24;101386.50;;;15.60;100.00
69058;BME280;56128;37.534;-122.308;2023-07-31T03:16:52;101384.50;;;15.52;100.00
69058;BME280;56128;37.534;-122.308;2023-07-31T03:19:17;101386.16;;;15.44;100.00
69058;BME280;56128;37.534;-122.308;2023-07-31T03:21:43;101384.22;;;15.34;100.00
69058;BME280;56128;37.534;-122.308;2023-07-31T03:24:09;101393.13;;;15.25;100.00
69058;BME280;56128;37.534;-122.308;2023-07-31T03:26:35;101395.91;;;15.14;100.00
69058;BME280;56128;37.534;-122.308;2023-07-31T03:29:02;101399.56;;;15.13;100.00
69058;BME280;56128;37.534;-122.308;2023-07-31T03:31:27;101397.41;;;15.06;100.00
69058;BME280;56128;37.534;-122.308;2023-07-31T03:33:53;101396.34;;;14.98;100.00
69058;BME280;56128;37.534;-122.308;2023-07-31T03:36:19;101402.25;;;14.91;100.00
69058;BME280;56128;37.534;-122.308;2023-07-31T03:38:46;101400.81;;;14.87;100.00
69058;BME280;56128;37.534;-122.308;2023-07-31T03:41:11;101406.72;;;14.81;100.00
69058;BME280;56128;37.534;-122.308;2023-07-31T03:43:37;101393.16;;;14.71;100.00
69058;BME280;56128;37.534;-122.308;2023-07-31T03:46:03;101394.41;;;14.67;100.00
69058;BME280;56128;37.534;-122.308;2023-07-31T03:48:29;101394.59;;;14.64;100.00
69058;BME280;56128;37.534;-122.308;2023-07-31T03:50:55;101396.97;;;14.57;100.00
69058;BME280;56128;37.534;-122.308;2023-07-31T03:53:21;101397.34;;;14.53;100.00
69058;BME280;56128;37.534;-122.308;2023-07-31T03:55:47;101399.34;;;14.51;100.00
69058;BME280;56128;37.534;-122.308;2023-07-31T03:58:12;101391.75;;;14.44;100.00
69058;BME280;56128;37.534;-122.308;2023-07-31T04:00:39;101388.69;;;14.38;100.00
69058;BME280;56128;37.534;-122.308;2023-07-31T04:03:05;101396.16;;;14.34;100.00
69058;BME280;56128;37.534;-122.308;2023-07-31T04:05:31;101398.84;;;14.34;100.00
69058;BME280;56128;37.534;-122.308;2023-07-31T04:07:57;101397.69;;;14.27;100.00
69058;BME280;56128;37.534;-122.308;2023-07-31T04:10:23;101399.88;;;14.22;100.00
69058;BME280;56128;37.534;-122.308;2023-07-31T04:12:49;101399.00;;;14.21;100.00
69058;BME280;56128;37.534;-122.308;2023-07-31T04:15:15;101410.88;;;14.19;100.00
69058;BME280;56128;37.534;-122.308;2023-07-31T04:17:41;101412.13;;;14.15;100.00
69058;BME280;56128;37.534;-122.308;2023-07-31T04:20:06;101423.88;;;14.13;100.00
69058;BME280;56128;37.534;-122.308;2023-07-31T04:22:32;101416.91;;;14.11;100.00
69058;BME280;56128;37.534;-122.308;2023-07-31T04:24:58;101418.97;;;14.07;100.00
69058;BME280;56128;37.534;-122.308;2023-07-31T04:27:24;101421.06;;;14.04;100.00
69058;BME280;56128;37.534;-122.308;2023-07-31T04:29:50;101421.31;;;14.01;100.00
69058;BME280;56128;37.534;-122.308;2023-07-31T04:32:16;101425.00;;;14.00;100.00
69058;BME280;56128;37.534;-122.308;2023-07-31T04:34:42;101423.63;;;13.94;100.00
69058;BME280;56128;37.534;-122.308;2023-07-31T04:37:08;101427.56;;;13.90;100.00
69058;BME280;56128;37.534;-122.308;2023-07-31T04:39:34;101435.75;;;13.88;100.00
69058;BME280;56128;37.534;-122.308;2023-07-31T04:42:00;101436.84;;;13.86;100.00
69058;BME280;56128;37.534;-122.308;2023-07-31T04:44:25;101440.88;;;13.80;100.00
69058;BME280;56128;37.534;-122.308;2023-07-31T04:46:51;101438.31;;;13.78;100.00
69058;BME280;56128;37.534;-122.308;2023-07-31T04:49:17;101432.31;;;13.75;100.00
69058;BME280;56128;37.534;-122.308;2023-07-31T04:51:44;101428.03;;;13.72;100.00
69058;BME280;56128;37.534;-122.308;2023-07-31T04:54:10;101423.88;;;13.68;100.00
69058;BME280;56128;37.534;-122.308;2023-07-31T04:56:38;101431.34;;;13.64;100.00
69058;BME280;56128;37.534;-122.308;2023-07-31T04:59:03;101431.22;;;13.66;100.00
69058;BME280;56128;37.534;-122.308;2023-07-31T05:01:29;101427.53;;;13.67;100.00
69058;BME280;56128;37.534;-122.308;2023-07-31T05:03:55;101429.50;;;13.65;100.00
69058;BME280;56128;37.534;-122.308;2023-07-31T05:06:21;101434.38;;;13.60;100.00
69058;BME280;56128;37.534;-122.308;2023-07-31T05:08:47;101435.47;;;13.57;100.00
69058;BME280;56128;37.534;-122.308;2023-07-31T05:11:12;101441.47;;;13.50;100.00
69058;BME280;56128;37.534;-122.308;2023-07-31T05:13:38;101440.63;;;13.49;100.00
69058;BME280;56128;37.534;-122.308;2023-07-31T05:16:04;101447.59;;;13.52;100.00
69058;BME280;56128;37.534;-122.308;2023-07-31T05:18:30;101446.09;;;13.47;100.00
69058;BME280;56128;37.534;-122.308;2023-07-31T05:20:56;101452.47;;;13.46;100.00
69058;BME280;56128;37.534;-122.308;2023-07-31T05:23:21;101453.03;;;13.39;100.00
69058;BME280;56128;37.534;-122.308;2023-07-31T05:25:47;101460.69;;;13.32;100.00
69058;BME280;56128;37.534;-122.308;2023-07-31T05:28:13;101473.16;;;13.33;100.00
69058;BME280;56128;37.534;-122.308;2023-07-31T05:30:39;101471.56;;;13.30;100.00
69058;BME280;56128;37.534;-122.308;2023-07-31T05:33:04;101470.94;;;13.27;100.00
69058;BME280;56128;37.534;-122.308;2023-07-31T05:35:30;101466.28;;;13.18;100.00
69058;BME280;56128;37.534;-122.308;2023-07-31T05:37:56;101465.28;;;13.19;100.00
69058;BME280;56128;37.534;-122.308;2023-07-31T05:40:22;101468.34;;;13.14;100.00
69058;BME280;56128;37.534;-122.308;2023-07-31T05:42:48;101468.22;;;13.15;100.00
69058;BME280;56128;37.534;-122.308;2023-07-31T05:45:14;101475.78;;;13.10;100.00
69058;BME280;56128;37.534;-122.308;2023-07-31T05:47:40;101459.66;;;13.10;100.00
69058;BME280;56128;37.534;-122.308;2023-07-31T05:50:05;101453.53;;;13.08;100.00
69058;BME280;56128;37.534;-122.308;2023-07-31T05:52:32;101446.22;;;13.10;100.00
69058;BME280;56128;37.534;-122.308;2023-07-31T05:54:57;101435.69;;;13.07;100.00
69058;BME280;56128;37.534;-122.308;2023-07-31T05:57:23;101442.16;;;13.05;100.00
69058;BME280;56128;37.534;-122.308;2023-07-31T05:59:49;101457.91;;;12.98;100.00
69058;BME280;56128;37.534;-122.308;2023-07-31T06:02:15;101457.25;;;12.94;100.00
69058;BME280;56128;37.534;-122.308;2023-07-31T06:04:40;101460.41;;;12.88;100.00
69058;BME280;56128;37.534;-122.308;2023-07-31T06:07:06;101463.56;;;12.82;100.00
69058;BME280;56128;37.534;-122.308;2023-07-31T06:09:32;101464.00;;;12.76;100.00
69058;BME280;56128;37.534;-122.308;2023-07-31T06:11:58;101466.81;;;12.74;100.00
69058;BME280;56128;37.534;-122.308;2023-07-31T06:14:24;101453.84;;;12.68;100.00
69058;BME280;56128;37.534;-122.308;2023-07-31T06:16:49;101446.13;;;12.63;100.00
69058;BME280;56128;37.534;-122.308;2023-07-31T06:19:15;101450.84;;;12.60;100.00
69058;BME280;56128;37.534;-122.308;2023-07-31T06:21:41;101453.78;;;12.57;100.00
69058;BME280;56128;37.534;-122.308;2023-07-31T06:24:08;101450.34;;;12.55;100.00
69058;BME280;56128;37.534;-122.308;2023-07-31T06:26:34;101443.63;;;12.49;100.00
69058;BME280;56128;37.534;-122.308;2023-07-31T06:29:00;101432.63;;;12.52;100.00
69058;BME280;56128;37.534;-122.308;2023-07-31T06:31:26;101440.28;;;12.45;100.00
69058;BME280;56128;37.534;-122.308;2023-07-31T06:33:52;101440.16;;;12.47;100.00
69058;BME280;56128;37.534;-122.308;2023-07-31T06:36:18;101444.47;;;12.49;100.00
69058;BME280;56128;37.534;-122.308;2023-07-31T06:38:44;101443.81;;;12.46;100.00
69058;BME280;56128;37.534;-122.308;2023-07-31T06:41:09;101433.19;;;12.44;100.00
69058;BME280;56128;37.534;-122.308;2023-07-31T06:43:36;101438.19;;;12.38;100.00
69058;BME280;56128;37.534;-122.308;2023-07-31T06:46:05;101430.25;;;12.36;100.00
69058;BME280;56128;37.534;-122.308;2023-07-31T06:48:32;101428.97;;;12.29;100.00
69058;BME280;56128;37.534;-122.308;2023-07-31T06:50:58;101431.41;;;12.32;100.00
69058;BME280;56128;37.534;-122.308;2023-07-31T06:53:24;101429.69;;;12.31;100.00
69058;BME280;56128;37.534;-122.308;2023-07-31T06:55:49;101432.16;;;12.34;100.00
69058;BME280;56128;37.534;-122.308;2023-07-31T06:58:17;101434.47;;;12.27;100.00
69058;BME280;56128;37.534;-122.308;2023-07-31T07:00:43;101432.63;;;12.28;100.00
69058;BME280;56128;37.534;-122.308;2023-07-31T07:03:09;101427.38;;;12.26;100.00
69058;BME280;56128;37.534;-122.308;2023-07-31T07:05:34;101422.63;;;12.30;100.00
69058;BME280;56128;37.534;-122.308;2023-07-31T07:08:00;101430.06;;;12.26;100.00
69058;BME280;56128;37.534;-122.308;2023-07-31T07:10:26;101431.41;;;12.32;100.00
69058;BME280;56128;37.534;-122.308;2023-07-31T07:12:52;101424.44;;;12.29;100.00
69058;BME280;56128;37.534;-122.308;2023-07-31T07:15:18;101427.56;;;12.36;100.00
69058;BME280;56128;37.534;-122.308;2023-07-31T07:17:44;101423.88;;;12.37;100.00
69058;BME280;56128;37.534;-122.308;2023-07-31T07:20:10;101426.34;;;12.40;100.00
69058;BME280;56128;37.534;-122.308;2023-07-31T07:22:35;101437.22;;;12.39;100.00
69058;BME280;56128;37.534;-122.308;2023-07-31T07:25:02;101421.03;;;12.27;100.00
69058;BME280;56128;37.534;-122.308;2023-07-31T07:27:27;101423.94;;;12.24;100.00
69058;BME280;56128;37.534;-122.308;2023-07-31T07:29:53;101420.72;;;12.19;100.00
69058;BME280;56128;37.534;-122.308;2023-07-31T07:32:19;101432.31;;;12.20;100.00
69058;BME280;56128;37.534;-122.308;2023-07-31T07:34:46;101426.41;;;12.14;100.00
69058;BME280;56128;37.534;-122.308;2023-07-31T07:37:12;101421.28;;;12.11;100.00
69058;BME280;56128;37.534;-122.308;2023-07-31T07:39:38;101423.84;;;12.13;100.00
69058;BME280;56128;37.534;-122.308;2023-07-31T07:42:04;101422.78;;;12.15;100.00
69058;BME280;56128;37.534;-122.308;2023-07-31T07:44:30;101416.13;;;12.21;100.00
69058;BME280;56128;37.534;-122.308;2023-07-31T07:46:56;101422.34;;;12.22;100.00
69058;BME280;56128;37.534;-122.308;2023-07-31T07:49:22;101435.22;;;12.16;100.00
69058;BME280;56128;37.534;-122.308;2023-07-31T07:51:48;101437.66;;;12.20;100.00
69058;BME280;56128;37.534;-122.308;2023-07-31T07:54:14;101428.91;;;12.17;100.00
69058;BME280;56128;37.534;-122.308;2023-07-31T07:56:40;101431.34;;;12.21;100.00
69058;BME280;56128;37.534;-122.308;2023-07-31T07:59:05;101430.38;;;12.22;100.00
69058;BME280;56128;37.534;-122.308;2023-07-31T08:01:31;101422.34;;;12.22;100.00
69058;BME280;56128;37.534;-122.308;2023-07-31T08:03:57;101414.28;;;12.22;100.00
69058;BME280;56128;37.534;-122.308;2023-07-31T08:06:23;101411.38;;;12.25;100.00
69058;BME280;56128;37.534;-122.308;2023-07-31T08:08:49;101407.72;;;12.26;100.00
69058;BME280;56128;37.534;-122.308;2023-07-31T08:11:15;101410.41;;;12.26;100.00
69058;BME280;56128;37.534;-122.308;2023-07-31T08:13:41;101414.16;;;12.23;100.00
69058;BME280;56128;37.534;-122.308;2023-07-31T08:16:07;101420.28;;;12.25;100.00
69058;BME280;56128;37.534;-122.308;2023-07-31T08:18:32;101404.31;;;12.24;100.00
69058;BME280;56128;37.534;-122.308;2023-07-31T08:20:58;101415.03;;;12.24;100.00
69058;BME280;56128;37.534;-122.308;2023-07-31T08:23:24;101415.03;;;12.24;100.00
69058;BME280;56128;37.534;-122.308;2023-07-31T08:25:50;101408.91;;;12.22;100.00
69058;BME280;56128;37.534;-122.308;2023-07-31T08:28:16;101412.34;;;12.24;100.00
69058;BME280;56128;37.534;-122.308;2023-07-31T08:30:42;101407.06;;;12.22;100.00
69058;BME280;56128;37.534;-122.308;2023-07-31T08:33:08;101407.19;;;12.21;100.00
69058;BME280;56128;37.534;-122.308;2023-07-31T08:35:34;101399.91;;;12.23;100.00
69058;BME280;56128;37.534;-122.308;2023-07-31T08:37:59;101404.50;;;12.21;100.00
69058;BME280;56128;37.534;-122.308;2023-07-31T08:40:25;101397.53;;;12.18;100.00
69058;BME280;56128;37.534;-122.308;2023-07-31T08:42:53;101402.78;;;12.20;100.00
69058;BME280;56128;37.534;-122.308;2023-07-31T08:45:19;101394.75;;;12.20;100.00
69058;BME280;56128;37.534;-122.308;2023-07-31T08:47:46;101393.66;;;12.22;100.00
69058;BME280;56128;37.534;-122.308;2023-07-31T08:50:13;101405.16;;;12.24;100.00
69058;BME280;56128;37.534;-122.308;2023-07-31T08:52:39;101393.78;;;12.21;100.00
69058;BME280;56128;37.534;-122.308;2023-07-31T08:55:08;101399.91;;;12.23;100.00
69058;BME280;56128;37.534;-122.308;2023-07-31T08:57:36;101387.56;;;12.20;100.00
69058;BME280;56128;37.534;-122.308;2023-07-31T09:03:09;101379.28;;;12.23;100.00
69058;BME280;56128;37.534;-122.308;2023-07-31T09:05:35;101378.44;;;12.23;100.00
69058;BME280;56128;37.534;-122.308;2023-07-31T09:08:02;101375.00;;;12.21;100.00
69058;BME280;56128;37.534;-122.308;2023-07-31T09:10:29;101360.09;;;12.16;100.00
69058;BME280;56128;37.534;-122.308;2023-07-31T09:12:55;101364.72;;;12.14;100.00
69058;BME280;56128;37.534;-122.308;2023-07-31T09:15:21;101368.03;;;12.18;100.00
69058;BME280;56128;37.534;-122.308;2023-07-31T09:17:49;101365.47;;;12.16;100.00
69058;BME280;56128;37.534;-122.308;2023-07-31T09:20:23;101371.81;;;12.15;100.00
69058;BME280;56128;37.534;-122.308;2023-07-31T09:22:49;101367.75;;;12.10;100.00
69058;BME280;56128;37.534;-122.308;2023-07-31T09:25:19;101366.16;;;12.07;100.00
69058;BME280;56128;37.534;-122.308;2023-07-31T09:27:46;101368.84;;;12.07;100.00
69058;BME280;56128;37.534;-122.308;2023-07-31T09:30:12;101364.19;;;12.09;100.00
69058;BME280;56128;37.534;-122.308;2023-07-31T09:32:38;101363.34;;;12.09;100.00
69058;BME280;56128;37.534;-122.308;2023-07-31T09:35:20;101367.84;;;12.08;100.00
69058;BME280;56128;37.534;-122.308;2023-07-31T09:37:53;101368.09;;;12.05;100.00
69058;BME280;56128;37.534;-122.308;2023-07-31T09:40:26;101372.81;;;12.01;100.00
69058;BME280;56128;37.534;-122.308;2023-07-31T09:42:53;101366.59;;;12.01;100.00
69058;BME280;56128;37.534;-122.308;2023-07-31T09:45:19;101373.13;;;11.97;100.00
69058;BME280;56128;37.534;-122.308;2023-07-31T09:47:48;101368.66;;;11.97;100.00
69058;BME280;56128;37.534;-122.308;2023-07-31T09:50:14;101371.63;;;11.93;100.00
69058;BME280;56128;37.534;-122.308;2023-07-31T09:52:41;101365.00;;;11.98;100.00
69058;BME280;56128;37.534;-122.308;2023-07-31T09:55:07;101367.97;;;11.94;100.00
69058;BME280;56128;37.534;-122.308;2023-07-31T09:57:33;101366.69;;;11.86;100.00
69058;BME280;56128;37.534;-122.308;2023-07-31T09:59:59;101362.28;;;11.85;100.00
69058;BME280;56128;37.534;-122.308;2023-07-31T10:02:26;101363.25;;;11.84;100.00
69058;BME280;56128;37.534;-122.308;2023-07-31T10:04:52;101364.47;;;11.80;100.00
69058;BME280;56128;37.534;-122.308;2023-07-31T10:07:23;101363.63;;;11.80;100.00
69058;BME280;56128;37.534;-122.308;2023-07-31T10:09:51;101363.63;;;11.80;100.00
69058;BME280;56128;37.534;-122.308;2023-07-31T10:12:17;101355.03;;;11.75;100.00
69058;BME280;56128;37.534;-122.308;2023-07-31T10:14:44;101364.25;;;11.70;100.00
69058;BME280;56128;37.534;-122.308;2023-07-31T10:17:10;101363.19;;;11.73;100.00
69058;BME280;56128;37.534;-122.308;2023-07-31T10:19:36;101364.06;;;11.74;100.00
69058;BME280;56128;37.534;-122.308;2023-07-31T10:22:02;101369.28;;;11.75;100.00
69058;BME280;56128;37.534;-122.308;2023-07-31T10:24:29;101369.28;;;11.75;100.00
69058;BME280;56128;37.534;-122.308;2023-07-31T10:26:57;101371.00;;;11.76;100.00
69058;BME280;56128;37.534;-122.308;2023-07-31T10:29:23;101368.53;;;11.73;100.00
69058;BME280;56128;37.534;-122.308;2023-07-31T10:31:50;101358.56;;;11.75;100.00
69058;BME280;56128;37.534;-122.308;2023-07-31T10:34:16;101368.53;;;11.73;100.00
69058;BME280;56128;37.534;-122.308;2023-07-31T10:36:42;101365.56;;;11.65;100.00
69058;BME280;56128;37.534;-122.308;2023-07-31T10:39:32;101367.38;;;11.64;100.00
69058;BME280;56128;37.534;-122.308;2023-07-31T10:41:53;101377.88;;;11.67;100.00
69058;BME280;56128;37.534;-122.308;2023-07-31T10:44:19;101369.09;;;11.65;100.00
69058;BME280;56128;37.534;-122.308;2023-07-31T10:46:45;101368.69;;;11.59;100.00
69058;BME280;56128;37.534;-122.308;2023-07-31T10:49:12;101369.75;;;11.56;100.00
69058;BME280;56128;37.534;-122.308;2023-07-31T10:51:46;101374.59;;;11.51;100.00
69058;BME280;56128;37.534;-122.308;2023-07-31T10:54:16;101375.88;;;11.45;100.00
69058;BME280;56128;37.534;-122.308;2023-07-31T10:56:47;101375.22;;;11.42;100.00
69058;BME280;56128;37.534;-122.308;2023-07-31T10:59:15;101369.78;;;11.43;100.00
69058;BME280;56128;37.534;-122.308;2023-07-31T11:01:56;101369.84;;;11.42;100.00
69058;BME280;56128;37.534;-122.308;2023-07-31T11:04:28;101370.94;;;11.39;100.00
69058;BME280;56128;37.534;-122.308;2023-07-31T11:06:56;101372.88;;;11.37;100.00
69058;BME280;56128;37.534;-122.308;2023-07-31T11:09:24;101372.53;;;11.29;100.00
69058;BME280;56128;37.534;-122.308;2023-07-31T11:11:50;101375.66;;;11.35;100.00
69058;BME280;56128;37.534;-122.308;2023-07-31T11:14:20;101376.63;;;11.34;100.00
69058;BME280;56128;37.534;-122.308;2023-07-31T11:16:46;101369.88;;;11.29;100.00
69058;BME280;56128;37.534;-122.308;2023-07-31T11:19:15;101370.72;;;11.29;100.00
69058;BME280;56128;37.534;-122.308;2023-07-31T11:21:46;101376.72;;;11.33;100.00
69058;BME280;56128;37.534;-122.308;2023-07-31T11:24:13;101371.78;;;11.27;100.00
69058;BME280;56128;37.534;-122.308;2023-07-31T11:26:39;101372.00;;;11.24;100.00
69058;BME280;56128;37.534;-122.308;2023-07-31T11:29:13;101372.00;;;11.24;100.00
69058;BME280;56128;37.534;-122.308;2023-07-31T11:31:42;101376.84;;;11.18;100.00
69058;BME280;56128;37.534;-122.308;2023-07-31T11:34:08;101372.66;;;11.14;100.00
69058;BME280;56128;37.534;-122.308;2023-07-31T11:36:34;101374.34;;;11.15;100.00
69058;BME280;56128;37.534;-122.308;2023-07-31T11:39:07;101369.22;;;11.12;100.00
69058;BME280;56128;37.534;-122.308;2023-07-31T11:41:33;101372.19;;;11.08;100.00
69058;BME280;56128;37.534;-122.308;2023-07-31T11:44:00;101379.50;;;11.06;100.00
69058;BME280;56128;37.534;-122.308;2023-07-31T11:46:26;101377.13;;;11.01;100.00
69058;BME280;56128;37.534;-122.308;2023-07-31T11:48:52;101377.25;;;10.99;100.00
69058;BME280;56128;37.534;-122.308;2023-07-31T11:51:17;101373.91;;;10.96;100.00
69058;BME280;56128;37.534;-122.308;2023-07-31T11:53:50;101380.22;;;10.95;100.00
69058;BME280;56128;37.534;-122.308;2023-07-31T11:56:17;101369.53;;;10.95;100.00
69058;BME280;56128;37.534;-122.308;2023-07-31T11:58:45;101376.47;;;10.97;100.00
69058;BME280;56128;37.534;-122.308;2023-07-31T12:01:11;101376.25;;;11.00;100.00
69058;BME280;56128;37.534;-122.308;2023-07-31T12:03:38;101365.78;;;10.97;100.00
69058;BME280;56128;37.534;-122.308;2023-07-31T12:06:05;101369.94;;;11.01;100.00
69058;BME280;56128;37.534;-122.308;2023-07-31T12:08:30;101375.41;;;11.00;100.00
69058;BME280;56128;37.534;-122.308;2023-07-31T12:11:02;101381.84;;;10.97;100.00
69058;BME280;56128;37.534;-122.308;2023-07-31T12:13:28;101386.97;;;11.00;100.00
69058;BME280;56128;37.534;-122.308;2023-07-31T12:15:57;101382.38;;;11.02;100.00
69058;BME280;56128;37.534;-122.308;2023-07-31T12:18:23;101390.41;;;11.02;100.00
69058;BME280;56128;37.534;-122.308;2023-07-31T12:21:00;101378.84;;;11.02;100.00
69058;BME280;56128;37.534;-122.308;2023-07-31T12:23:26;101377.13;;;11.01;100.00